Plympton, MA

4:33 PM EDT on October 21, 2014 (GMT -0400)
Turkey Swamp Yacht Club | Change Station
CLOSE
Current Station
Personal Weather Station
Location: Halifax, MA
Elevation: 50 ft
Nearby Weather Stations

Elev 50 ft 41.99 °N, 70.83 °W | Updated 14 minutes ago

Mostly Cloudy
Mostly Cloudy
62.2 °F
Feels Like 62.2 °F
N
0.0
Wind Variable Wind from East
Gusts 3.0 mph

Today
High -- | Low -- °F
--% Chance of Precip.
Yesterday
High -- | Low -- °F
Precip. -- in
7:02 AM 5:52 PM
Waning Crescent, 4% visible
Pressure 29.90 in
Visibility 10.0 miles
Clouds Few 1800 ft
Scattered Clouds 3200 ft
Dew Point 57 °F
Humidity 84%
Rainfall 0.00 in
Snow Depth Not available.
UV 0.7 out of 12
Pollen .30 out of 12
PM2.5 Good
Flu Activity No Activity
SPECI KPYM 212023Z AUTO 06004KT 10SM FEW018 SCT032 17/14 A2990 RMK AO2 T01670139

More Conditions Fewer Conditions

Pressure 29.90 in
Visibility 10.0 miles
Clouds Few 1800 ft
Scattered Clouds 3200 ft
Dew Point 57 °F
Humidity 84%
Rainfall 0.00 in
Snow Depth Not available.
UV 0.7 out of 12
Pollen .30 out of 12
PM2.5 Good
Flu Activity No Activity
SPECI KPYM 212023Z AUTO 06004KT 10SM FEW018 SCT032 17/14 A2990 RMK AO2 T01670139

More Conditions Fewer Conditions

10-Day Weather Forecast

Almanac

Astronomy

Oct. 21, 2014 Rise Set
Actual Time 7:02 AM EDT 5:52 PM EDT
Civil Twilight 6:34 AM EDT 6:20 PM EDT
Nautical Twilight 6:01 AM EDT 6:53 PM EDT
Astronomical Twilight 5:29 AM EDT 7:25 PM EDT
Moon 4:41 AM EDT 4:46 PM EDT
Length of Visible Light 11h 46m
Length of Day
10h 49m
Tomorrow will be 2m 39s shorter.
Waning Crescent, 4% of the Moon is Illuminated
Today
Waning Crescent
Oct 23
New
Oct 30
First Quarter
Nov 6
Full
Nov 14
Last Quarter

Today's Extremes

State Highs State Lows

Community

WunderPhotos

Upload Photos

1,763,772 photos uploaded!

Nearby

Air Quality

  Air Quality AQ Index Pollutant
Yesterday Good
PM2.5
Yesterday Good
OZONE
Current Good
PM2.5
Tuesday Good
PM2.5
Wednesday Good
PM2.5
Thursday Good
PM2.5

Snow Depth

Station Depth Elevation
No new snow has been reported.

Earthquake Activity

City Distance Mag. Time & Date
No recent earthquake activity has been reported nearby.
Minimum magnitude displayed is 2.5.

Coastal Water Temperatures

Place Temperature
Boston, MA 57.0 °F
Fall River, MA 64.0 °F

Nearby Weather Stations